Prospect Creek, Prospect Cree, AK

6:05 PM AKDT on September 14, 2014 (GMT -0800)
Bettles | Change Station
CLOSE
Current Station
Airport
Location: Bettles,
Elevation: 643 ft
Nearby Weather Stations

Elev 643 ft 66.91 °N, 151.53 °W | Updated 12 minutes ago

Mostly Cloudy
Mostly Cloudy
59 °F
Feels Like 59 °F
N
6
Wind Variable Wind from NNE

Today
High -- | Low -- °F
--% Chance of Precip.
Yesterday
High -- | Low -- °F
Precip. -- in
7:18 AM 8:35 PM
Waning Gibbous, 60% visible
Pressure 29.63 in
Visibility 10.0 miles
Clouds Few 1900 ft
Mostly Cloudy 3800 ft
Mostly Cloudy 5000 ft
Dew Point 49 °F
Humidity 69%
Rainfall 0.13 in
Snow Depth 6 in , 0 in , 1 in
UV 0 out of 12
Pollen Not available.
Air Quality Not available.
Flu Activity Not available.
METAR PABT 150153Z 02005KT 10SM FEW019 BKN038 BKN050 15/09 A2960 RMK AO2 SLP032 T01500094

More Conditions Fewer Conditions

Pressure 29.63 in
Visibility 10.0 miles
Clouds Few 1900 ft
Mostly Cloudy 3800 ft
Mostly Cloudy 5000 ft
Dew Point 49 °F
Humidity 69%
Rainfall 0.13 in
Snow Depth 6 in , 0 in , 1 in
UV 0 out of 12
Pollen Not available.
Air Quality Not available.
Flu Activity Not available.
METAR PABT 150153Z 02005KT 10SM FEW019 BKN038 BKN050 15/09 A2960 RMK AO2 SLP032 T01500094

More Conditions Fewer Conditions

10-Day Weather Forecast

Almanac

Astronomy

Sep. 14, 2014 Rise Set
Actual Time 7:18 AM AKDT 8:35 PM AKDT
Civil Twilight 6:23 AM AKDT 9:29 PM AKDT
Nautical Twilight 5:11 AM AKDT 10:40 PM AKDT
Astronomical Twilight 3:29 AM AKDT 12:18 AM AKDT
Moon 9:54 PM AKDT (9/14) 4:15 PM AKDT (9/14)
Length of Visible Light 15h 05m
Length of Day
13h 16m
Tomorrow will be 7m 19s shorter.
Waning Gibbous, 60% of the Moon is Illuminated
Today
Waning Gibbous
Sep 15
Last Quarter
Sep 24
New
Oct 1
First Quarter
Oct 8
Full

Today's Extremes

State Highs State Lows

Community

WunderPhotos

Upload Photos

1,753,371 photos uploaded!

Nearby

Snow Depth

Station Depth Elevation
Atigun Pass 6 in 4800 ft
Little Chena Ridge 0 in 2000 ft
Mcneil Canyon 1 in 1320 ft
Rocky Point 4 in 500 ft
MF Bradley River 3 in 2300 ft

Earthquake Activity

City Distance Mag. Time & Date
No recent earthquake activity has been reported nearby.
Minimum magnitude displayed is 2.5.

Coastal Water Temperatures

Place Temperature
No Stations Reporting

Nearby Weather Stations